Homer, Illinois
Current Conditions -  °F | °C
As of 2:28 AM on Monday 24 Nov 2014 (Local Time) from KCMI Reporting Station
Haze Haze  
Wind Chill: 52°   Ceiling: 200
Heat Index: 52°   Visibility: 1.5mi
Dew Point: 52°   Wind: 9mph
Humidity: 100%   Direction: 200°SSW
Pressure: 29.16"   Gusts: NA
Location:  40.03°N, 87.96°W
Report Text: KCMI 240828Z AUTO 20008KT 1 1/2SM BR OVC002 11/11 A2916 RMK AO2 T01110111 $
Loading
Personal Weather Stations






























Interactive Weather Map New forecast layout! Learn more

10-Day Weather Forecast

Advertisements
Track Severe Weather on mobile